sensor_id;sensor_type;location;lat;lon;timestamp;pressure;altitude;pressure_sealevel;temperature;humidity
23059;BME280;30585;51.502;7.218;2022-09-09T00:01:59;153765.25;;;14.19;100.00
23059;BME280;30585;51.502;7.218;2022-09-09T00:04:30;153792.50;;;14.30;100.00
23059;BME280;30585;51.502;7.218;2022-09-09T00:07:05;153767.84;;;14.20;100.00
23059;BME280;30585;51.502;7.218;2022-09-09T00:09:39;153760.13;;;14.17;100.00
23059;BME280;30585;51.502;7.218;2022-09-09T00:12:13;153792.50;;;14.30;100.00
23059;BME280;30585;51.502;7.218;2022-09-09T00:14:49;153795.09;;;14.31;100.00
23059;BME280;30585;51.502;7.218;2022-09-09T00:17:30;153787.31;;;14.28;100.00
23059;BME280;30585;51.502;7.218;2022-09-09T00:20:03;153806.75;;;14.36;100.00
23059;BME280;30585;51.502;7.218;2022-09-09T00:22:40;153784.72;;;14.27;100.00
23059;BME280;30585;51.502;7.218;2022-09-09T00:25:16;153779.53;;;14.25;100.00
23059;BME280;30585;51.502;7.218;2022-09-09T00:27:49;153792.50;;;14.30;100.00
23059;BME280;30585;51.502;7.218;2022-09-09T00:30:21;153814.50;;;14.39;100.00
23059;BME280;30585;51.502;7.218;2022-09-09T00:32:54;153787.31;;;14.28;100.00
23059;BME280;30585;51.502;7.218;2022-09-09T00:35:27;153783.44;;;14.26;100.00
23059;BME280;30585;51.502;7.218;2022-09-09T00:38:01;153752.31;;;14.14;100.00
23059;BME280;30585;51.502;7.218;2022-09-09T00:40:32;153779.53;;;14.25;100.00
23059;BME280;30585;51.502;7.218;2022-09-09T00:43:15;153744.53;;;14.11;100.00
23059;BME280;30585;51.502;7.218;2022-09-09T00:46:04;153748.47;;;14.12;100.00
23059;BME280;30585;51.502;7.218;2022-09-09T00:48:42;153751.06;;;14.13;100.00
23059;BME280;30585;51.502;7.218;2022-09-09T00:51:17;153732.88;;;14.06;100.00
23059;BME280;30585;51.502;7.218;2022-09-09T00:54:05;153727.75;;;14.04;100.00
23059;BME280;30585;51.502;7.218;2022-09-09T00:56:46;153738.06;;;14.08;100.00
23059;BME280;30585;51.502;7.218;2022-09-09T00:59:24;153714.75;;;13.99;100.00
23059;BME280;30585;51.502;7.218;2022-09-09T01:01:58;153692.72;;;13.90;100.00
23059;BME280;30585;51.502;7.218;2022-09-09T01:04:31;153701.81;;;13.94;100.00
23059;BME280;30585;51.502;7.218;2022-09-09T01:07:07;153683.66;;;13.86;100.00
23059;BME280;30585;51.502;7.218;2022-09-09T01:09:48;153673.31;;;13.82;100.00
23059;BME280;30585;51.502;7.218;2022-09-09T01:12:25;153665.53;;;13.79;100.00
23059;BME280;30585;51.502;7.218;2022-09-09T01:14:58;153661.66;;;13.78;100.00
23059;BME280;30585;51.502;7.218;2022-09-09T01:17:32;153665.53;;;13.79;100.00
23059;BME280;30585;51.502;7.218;2022-09-09T01:20:05;153683.66;;;13.86;100.00
23059;BME280;30585;51.502;7.218;2022-09-09T01:22:38;153675.91;;;13.83;100.00
23059;BME280;30585;51.502;7.218;2022-09-09T01:25:18;153653.88;;;13.75;100.00
23059;BME280;30585;51.502;7.218;2022-09-09T01:27:50;153696.63;;;13.92;100.00
23059;BME280;30585;51.502;7.218;2022-09-09T01:30:20;153687.56;;;13.88;100.00
23059;BME280;30585;51.502;7.218;2022-09-09T01:32:50;153678.50;;;13.84;100.00
23059;BME280;30585;51.502;7.218;2022-09-09T01:35:27;153665.53;;;13.79;100.00
23059;BME280;30585;51.502;7.218;2022-09-09T01:37:57;153688.84;;;13.89;100.00
23059;BME280;30585;51.502;7.218;2022-09-09T01:40:25;153669.41;;;13.81;100.00
23059;BME280;30585;51.502;7.218;2022-09-09T01:42:55;153642.22;;;13.70;100.00
23059;BME280;30585;51.502;7.218;2022-09-09T01:45:24;153639.63;;;13.69;100.00
23059;BME280;30585;51.502;7.218;2022-09-09T01:47:52;153609.84;;;13.57;100.00
23059;BME280;30585;51.502;7.218;2022-09-09T01:50:21;153655.19;;;13.75;100.00
23059;BME280;30585;51.502;7.218;2022-09-09T01:52:52;153657.75;;;13.76;100.00
23059;BME280;30585;51.502;7.218;2022-09-09T01:55:29;153666.84;;;13.80;100.00
23059;BME280;30585;51.502;7.218;2022-09-09T01:58:11;153655.19;;;13.75;100.00
23059;BME280;30585;51.502;7.218;2022-09-09T02:00:45;153668.13;;;13.80;100.00
23059;BME280;30585;51.502;7.218;2022-09-09T02:03:20;153703.09;;;13.94;100.00
23059;BME280;30585;51.502;7.218;2022-09-09T02:05:58;153709.56;;;13.97;100.00
23059;BME280;30585;51.502;7.218;2022-09-09T02:08:34;153706.97;;;13.96;100.00
23059;BME280;30585;51.502;7.218;2022-09-09T02:11:07;153727.75;;;14.04;100.00
23059;BME280;30585;51.502;7.218;2022-09-09T02:13:39;153734.22;;;14.07;100.00
23059;BME280;30585;51.502;7.218;2022-09-09T02:16:12;153714.75;;;13.99;100.00
23059;BME280;30585;51.502;7.218;2022-09-09T02:18:46;153709.56;;;13.97;100.00
23059;BME280;30585;51.502;7.218;2022-09-09T02:21:17;153704.38;;;13.95;100.00
23059;BME280;30585;51.502;7.218;2022-09-09T02:23:47;153687.56;;;13.88;100.00
23059;BME280;30585;51.502;7.218;2022-09-09T02:26:19;153706.97;;;13.96;100.00
23059;BME280;30585;51.502;7.218;2022-09-09T02:28:53;153660.34;;;13.77;100.00
23059;BME280;30585;51.502;7.218;2022-09-09T02:31:24;153670.72;;;13.81;100.00
23059;BME280;30585;51.502;7.218;2022-09-09T02:33:56;153704.38;;;13.95;100.00
23059;BME280;30585;51.502;7.218;2022-09-09T02:36:27;153687.56;;;13.88;100.00
23059;BME280;30585;51.502;7.218;2022-09-09T02:38:56;153664.25;;;13.79;100.00
23059;BME280;30585;51.502;7.218;2022-09-09T02:41:27;153662.94;;;13.78;100.00
23059;BME280;30585;51.502;7.218;2022-09-09T02:43:58;153660.34;;;13.77;100.00
23059;BME280;30585;51.502;7.218;2022-09-09T02:46:36;153642.22;;;13.70;100.00
23059;BME280;30585;51.502;7.218;2022-09-09T02:49:18;153668.13;;;13.80;100.00
23059;BME280;30585;51.502;7.218;2022-09-09T02:51:53;153668.13;;;13.80;100.00
23059;BME280;30585;51.502;7.218;2022-09-09T02:54:27;153678.50;;;13.84;100.00
23059;BME280;30585;51.502;7.218;2022-09-09T02:57:02;153664.25;;;13.79;100.00
23059;BME280;30585;51.502;7.218;2022-09-09T02:59:33;153700.50;;;13.93;100.00
23059;BME280;30585;51.502;7.218;2022-09-09T03:02:01;153708.28;;;13.96;100.00
23059;BME280;30585;51.502;7.218;2022-09-09T03:04:30;153682.38;;;13.86;100.00
23059;BME280;30585;51.502;7.218;2022-09-09T03:06:58;153730.28;;;14.05;100.00
23059;BME280;30585;51.502;7.218;2022-09-09T03:09:26;153705.69;;;13.95;100.00
23059;BME280;30585;51.502;7.218;2022-09-09T03:11:54;153744.53;;;14.11;100.00
23059;BME280;30585;51.502;7.218;2022-09-09T03:14:22;153741.94;;;14.10;100.00
23059;BME280;30585;51.502;7.218;2022-09-09T03:16:53;153731.59;;;14.06;100.00
23059;BME280;30585;51.502;7.218;2022-09-09T03:19:23;153753.59;;;14.14;100.00
23059;BME280;30585;51.502;7.218;2022-09-09T03:21:51;153766.59;;;14.20;100.00
23059;BME280;30585;51.502;7.218;2022-09-09T03:24:19;153776.91;;;14.24;100.00
23059;BME280;30585;51.502;7.218;2022-09-09T03:26:47;153735.47;;;14.07;100.00
23059;BME280;30585;51.502;7.218;2022-09-09T03:29:16;153771.78;;;14.22;100.00
23059;BME280;30585;51.502;7.218;2022-09-09T03:31:45;153769.19;;;14.21;100.00
23059;BME280;30585;51.502;7.218;2022-09-09T03:34:14;153765.25;;;14.19;100.00
23059;BME280;30585;51.502;7.218;2022-09-09T03:36:42;153771.78;;;14.22;100.00
23059;BME280;30585;51.502;7.218;2022-09-09T03:39:10;153758.78;;;14.16;100.00
23059;BME280;30585;51.502;7.218;2022-09-09T03:41:37;153762.72;;;14.18;100.00
23059;BME280;30585;51.502;7.218;2022-09-09T03:44:05;153731.59;;;14.06;100.00
23059;BME280;30585;51.502;7.218;2022-09-09T03:46:33;153760.13;;;14.17;100.00
23059;BME280;30585;51.502;7.218;2022-09-09T03:49:01;153758.78;;;14.16;100.00
23059;BME280;30585;51.502;7.218;2022-09-09T03:51:30;153758.78;;;14.16;100.00
23059;BME280;30585;51.502;7.218;2022-09-09T03:53:58;153753.59;;;14.14;100.00
23059;BME280;30585;51.502;7.218;2022-09-09T03:56:27;153753.59;;;14.14;100.00
23059;BME280;30585;51.502;7.218;2022-09-09T03:58:54;153740.66;;;14.09;100.00
23059;BME280;30585;51.502;7.218;2022-09-09T04:01:22;153751.06;;;14.13;100.00
23059;BME280;30585;51.502;7.218;2022-09-09T04:03:50;153696.63;;;13.92;100.00
23059;BME280;30585;51.502;7.218;2022-09-09T04:06:19;153731.59;;;14.06;100.00
23059;BME280;30585;51.502;7.218;2022-09-09T04:08:49;153731.59;;;14.06;100.00
23059;BME280;30585;51.502;7.218;2022-09-09T04:11:18;153740.66;;;14.09;100.00
23059;BME280;30585;51.502;7.218;2022-09-09T04:13:46;153732.88;;;14.06;100.00
23059;BME280;30585;51.502;7.218;2022-09-09T04:16:15;153740.66;;;14.09;100.00
23059;BME280;30585;51.502;7.218;2022-09-09T04:18:43;153740.66;;;14.09;100.00
23059;BME280;30585;51.502;7.218;2022-09-09T04:21:11;153741.94;;;14.10;100.00
23059;BME280;30585;51.502;7.218;2022-09-09T04:23:39;153734.22;;;14.07;100.00
23059;BME280;30585;51.502;7.218;2022-09-09T04:26:09;153719.94;;;14.01;100.00
23059;BME280;30585;51.502;7.218;2022-09-09T04:28:37;153703.09;;;13.94;100.00
23059;BME280;30585;51.502;7.218;2022-09-09T04:31:06;153744.53;;;14.11;100.00
23059;BME280;30585;51.502;7.218;2022-09-09T04:33:34;153749.72;;;14.13;100.00
23059;BME280;30585;51.502;7.218;2022-09-09T04:36:06;153738.06;;;14.08;100.00
23059;BME280;30585;51.502;7.218;2022-09-09T04:38:34;153745.88;;;14.11;100.00
23059;BME280;30585;51.502;7.218;2022-09-09T04:41:02;153718.63;;;14.00;100.00
23059;BME280;30585;51.502;7.218;2022-09-09T04:43:31;153725.16;;;14.03;100.00
23059;BME280;30585;51.502;7.218;2022-09-09T04:45:59;153696.63;;;13.92;100.00
23059;BME280;30585;51.502;7.218;2022-09-09T04:48:27;153694.03;;;13.91;100.00
23059;BME280;30585;51.502;7.218;2022-09-09T04:50:56;153710.88;;;13.97;100.00
23059;BME280;30585;51.502;7.218;2022-09-09T04:53:24;153712.16;;;13.98;100.00
23059;BME280;30585;51.502;7.218;2022-09-09T04:56:03;153695.31;;;13.91;100.00
23059;BME280;30585;51.502;7.218;2022-09-09T04:58:32;153704.38;;;13.95;100.00
23059;BME280;30585;51.502;7.218;2022-09-09T05:01:05;153703.09;;;13.94;100.00
23059;BME280;30585;51.502;7.218;2022-09-09T05:03:33;153717.34;;;14.00;100.00
23059;BME280;30585;51.502;7.218;2022-09-09T05:06:06;153717.34;;;14.00;100.00
23059;BME280;30585;51.502;7.218;2022-09-09T05:08:35;153730.28;;;14.05;100.00
23059;BME280;30585;51.502;7.218;2022-09-09T05:11:03;153735.47;;;14.07;100.00
23059;BME280;30585;51.502;7.218;2022-09-09T05:13:33;153723.81;;;14.02;100.00
23059;BME280;30585;51.502;7.218;2022-09-09T05:16:06;153738.06;;;14.08;100.00
23059;BME280;30585;51.502;7.218;2022-09-09T05:18:37;153739.41;;;14.09;100.00
23059;BME280;30585;51.502;7.218;2022-09-09T05:21:06;153752.31;;;14.14;100.00
23059;BME280;30585;51.502;7.218;2022-09-09T05:23:34;153743.28;;;14.10;100.00
23059;BME280;30585;51.502;7.218;2022-09-09T05:26:02;153754.94;;;14.15;100.00
23059;BME280;30585;51.502;7.218;2022-09-09T05:28:30;153758.78;;;14.16;100.00
23059;BME280;30585;51.502;7.218;2022-09-09T05:31:02;153751.06;;;14.13;100.00
23059;BME280;30585;51.502;7.218;2022-09-09T05:33:31;153774.38;;;14.23;100.00
23059;BME280;30585;51.502;7.218;2022-09-09T05:36:00;153771.78;;;14.22;100.00
23059;BME280;30585;51.502;7.218;2022-09-09T05:38:30;153784.72;;;14.27;100.00
23059;BME280;30585;51.502;7.218;2022-09-09T05:40:59;153789.91;;;14.29;100.00
23059;BME280;30585;51.502;7.218;2022-09-09T05:43:27;153782.13;;;14.26;100.00
23059;BME280;30585;51.502;7.218;2022-09-09T05:46:01;153810.63;;;14.37;100.00
23059;BME280;30585;51.502;7.218;2022-09-09T05:48:31;153813.22;;;14.38;100.00
23059;BME280;30585;51.502;7.218;2022-09-09T05:51:01;153818.41;;;14.40;100.00
23059;BME280;30585;51.502;7.218;2022-09-09T05:53:29;153813.22;;;14.38;100.00
23059;BME280;30585;51.502;7.218;2022-09-09T05:56:00;153849.50;;;14.53;100.00
23059;BME280;30585;51.502;7.218;2022-09-09T05:58:30;153846.94;;;14.52;100.00
23059;BME280;30585;51.502;7.218;2022-09-09T06:03:31;153865.06;;;14.59;100.00
23059;BME280;30585;51.502;7.218;2022-09-09T06:06:00;153872.81;;;14.62;100.00
23059;BME280;30585;51.502;7.218;2022-09-09T06:08:28;153883.22;;;14.66;100.00
23059;BME280;30585;51.502;7.218;2022-09-09T06:11:01;153901.38;;;14.73;100.00
23059;BME280;30585;51.502;7.218;2022-09-09T06:13:32;153902.72;;;14.74;100.00
23059;BME280;30585;51.502;7.218;2022-09-09T06:16:03;153889.72;;;14.69;100.00
23059;BME280;30585;51.502;7.218;2022-09-09T06:18:31;153888.44;;;14.68;100.00
23059;BME280;30585;51.502;7.218;2022-09-09T06:21:00;153916.97;;;14.79;100.00
23059;BME280;30585;51.502;7.218;2022-09-09T06:23:31;153924.72;;;14.83;100.00
23059;BME280;30585;51.502;7.218;2022-09-09T06:26:04;153919.56;;;14.80;100.00
23059;BME280;30585;51.502;7.218;2022-09-09T06:28:32;153940.31;;;14.89;100.00
23059;BME280;30585;51.502;7.218;2022-09-09T06:31:03;153937.72;;;14.88;100.00
23059;BME280;30585;51.502;7.218;2022-09-09T06:33:33;153958.44;;;14.96;100.00
23059;BME280;30585;51.502;7.218;2022-09-09T06:36:02;153975.31;;;15.03;100.00
23059;BME280;30585;51.502;7.218;2022-09-09T06:38:30;153996.03;;;15.11;100.00
23059;BME280;30585;51.502;7.218;2022-09-09T06:40:59;154008.97;;;15.16;100.00
23059;BME280;30585;51.502;7.218;2022-09-09T06:43:28;154011.56;;;15.17;100.00
23059;BME280;30585;51.502;7.218;2022-09-09T06:45:57;154015.50;;;15.19;100.00
23059;BME280;30585;51.502;7.218;2022-09-09T06:48:27;154016.78;;;15.19;100.00
23059;BME280;30585;51.502;7.218;2022-09-09T06:51:03;154040.09;;;15.29;100.00
23059;BME280;30585;51.502;7.218;2022-09-09T06:53:31;154067.31;;;15.39;100.00
23059;BME280;30585;51.502;7.218;2022-09-09T06:56:00;154088.09;;;15.48;100.00
23059;BME280;30585;51.502;7.218;2022-09-09T06:58:29;154107.53;;;15.55;100.00
23059;BME280;30585;51.502;7.218;2022-09-09T07:01:04;154125.72;;;15.63;100.00
23059;BME280;30585;51.502;7.218;2022-09-09T07:03:33;154142.53;;;15.69;100.00
23059;BME280;30585;51.502;7.218;2022-09-09T07:06:01;154136.06;;;15.67;100.00
23059;BME280;30585;51.502;7.218;2022-09-09T07:08:31;154143.88;;;15.70;100.00
23059;BME280;30585;51.502;7.218;2022-09-09T07:11:02;154150.34;;;15.72;100.00
23059;BME280;30585;51.502;7.218;2022-09-09T07:13:37;154189.28;;;15.88;100.00
23059;BME280;30585;51.502;7.218;2022-09-09T07:16:06;154210.06;;;15.96;100.00
23059;BME280;30585;51.502;7.218;2022-09-09T07:18:37;154242.50;;;16.09;100.00
23059;BME280;30585;51.502;7.218;2022-09-09T07:21:05;154294.41;;;16.30;100.00
23059;BME280;30585;51.502;7.218;2022-09-09T07:23:34;154356.66;;;16.55;100.00
23059;BME280;30585;51.502;7.218;2022-09-09T07:26:06;154359.25;;;16.56;100.00
23059;BME280;30585;51.502;7.218;2022-09-09T07:28:35;154369.59;;;16.60;100.00
23059;BME280;30585;51.502;7.218;2022-09-09T07:31:04;154433.22;;;16.85;100.00
23059;BME280;30585;51.502;7.218;2022-09-09T07:33:33;154552.69;;;17.33;100.00
23059;BME280;30585;51.502;7.218;2022-09-09T07:36:05;154600.75;;;17.52;100.00
23059;BME280;30585;51.502;7.218;2022-09-09T07:38:38;154555.28;;;17.34;100.00
23059;BME280;30585;51.502;7.218;2022-09-09T07:41:07;154560.50;;;17.36;100.00
23059;BME280;30585;51.502;7.218;2022-09-09T07:43:38;154447.50;;;16.91;100.00
23059;BME280;30585;51.502;7.218;2022-09-09T07:46:07;154552.69;;;17.33;100.00
23059;BME280;30585;51.502;7.218;2022-09-09T07:48:36;154524.16;;;17.21;100.00
23059;BME280;30585;51.502;7.218;2022-09-09T07:51:07;154522.84;;;17.21;100.00
23059;BME280;30585;51.502;7.218;2022-09-09T07:53:37;154602.03;;;17.52;100.00
23059;BME280;30585;51.502;7.218;2022-09-09T07:56:07;154646.16;;;17.70;100.00
23059;BME280;30585;51.502;7.218;2022-09-09T07:58:36;154646.16;;;17.70;100.00
23059;BME280;30585;51.502;7.218;2022-09-09T08:01:08;154722.88;;;18.00;100.00
23059;BME280;30585;51.502;7.218;2022-09-09T08:03:38;154681.28;;;17.84;96.27
23059;BME280;30585;51.502;7.218;2022-09-09T08:06:08;154625.41;;;17.62;97.25
23059;BME280;30585;51.502;7.218;2022-09-09T08:08:36;154716.38;;;17.98;96.40
23059;BME280;30585;51.502;7.218;2022-09-09T08:11:07;154812.50;;;18.36;97.49
23059;BME280;30585;51.502;7.218;2022-09-09T08:13:35;154780.00;;;18.23;95.18
23059;BME280;30585;51.502;7.218;2022-09-09T08:16:05;154925.50;;;18.81;97.47
23059;BME280;30585;51.502;7.218;2022-09-09T08:18:34;154843.66;;;18.48;92.52
23059;BME280;30585;51.502;7.218;2022-09-09T08:21:11;154887.81;;;18.66;90.24
23059;BME280;30585;51.502;7.218;2022-09-09T08:23:39;154757.94;;;18.14;89.92
23059;BME280;30585;51.502;7.218;2022-09-09T08:26:11;154820.28;;;18.39;93.47
23059;BME280;30585;51.502;7.218;2022-09-09T08:28:39;154834.56;;;18.45;91.17
23059;BME280;30585;51.502;7.218;2022-09-09T08:31:10;154869.66;;;18.59;91.77
23059;BME280;30585;51.502;7.218;2022-09-09T08:33:40;154795.63;;;18.29;91.84
23059;BME280;30585;51.502;7.218;2022-09-09T08:36:16;154829.34;;;18.43;91.45
23059;BME280;30585;51.502;7.218;2022-09-09T08:38:47;154730.63;;;18.03;90.58
23059;BME280;30585;51.502;7.218;2022-09-09T08:41:35;154676.06;;;17.82;93.27
23059;BME280;30585;51.502;7.218;2022-09-09T08:44:07;154730.63;;;18.03;92.49
23059;BME280;30585;51.502;7.218;2022-09-09T08:46:42;154657.91;;;17.74;92.91
23059;BME280;30585;51.502;7.218;2022-09-09T08:49:35;154757.94;;;18.14;90.14
23059;BME280;30585;51.502;7.218;2022-09-09T08:52:11;154894.38;;;18.68;90.59
23059;BME280;30585;51.502;7.218;2022-09-09T08:54:42;154941.13;;;18.87;84.51
23059;BME280;30585;51.502;7.218;2022-09-09T08:57:20;155004.88;;;19.12;83.66
23059;BME280;30585;51.502;7.218;2022-09-09T08:59:54;154943.75;;;18.88;87.58
23059;BME280;30585;51.502;7.218;2022-09-09T09:02:26;155111.44;;;19.55;86.50
23059;BME280;30585;51.502;7.218;2022-09-09T09:05:02;155017.84;;;19.18;81.60
23059;BME280;30585;51.502;7.218;2022-09-09T09:07:48;155062.03;;;19.35;83.02
23059;BME280;30585;51.502;7.218;2022-09-09T09:10:29;155047.75;;;19.29;81.88
23059;BME280;30585;51.502;7.218;2022-09-09T09:13:14;155075.06;;;19.40;80.61
23059;BME280;30585;51.502;7.218;2022-09-09T09:15:47;155076.34;;;19.41;79.50
23059;BME280;30585;51.502;7.218;2022-09-09T09:18:17;154990.56;;;19.07;81.65
23059;BME280;30585;51.502;7.218;2022-09-09T09:20:53;154993.19;;;19.08;81.11
23059;BME280;30585;51.502;7.218;2022-09-09T09:23:25;154911.25;;;18.75;81.36
23059;BME280;30585;51.502;7.218;2022-09-09T09:25:57;154995.78;;;19.09;83.75
23059;BME280;30585;51.502;7.218;2022-09-09T09:28:29;154969.78;;;18.98;81.56
23059;BME280;30585;51.502;7.218;2022-09-09T09:31:01;154954.13;;;18.92;82.87
23059;BME280;30585;51.502;7.218;2022-09-09T09:33:34;154969.78;;;18.98;79.08
23059;BME280;30585;51.502;7.218;2022-09-09T09:36:05;154933.31;;;18.84;81.40
23059;BME280;30585;51.502;7.218;2022-09-09T09:38:36;155051.66;;;19.31;80.91
23059;BME280;30585;51.502;7.218;2022-09-09T09:41:32;155121.88;;;19.59;80.00
23059;BME280;30585;51.502;7.218;2022-09-09T09:44:02;154976.28;;;19.01;80.01
23059;BME280;30585;51.502;7.218;2022-09-09T09:46:31;155082.84;;;19.43;77.10
23059;BME280;30585;51.502;7.218;2022-09-09T09:49:00;155042.56;;;19.27;77.01
23059;BME280;30585;51.502;7.218;2022-09-09T09:51:30;155134.84;;;19.64;77.75
23059;BME280;30585;51.502;7.218;2022-09-09T09:54:13;155262.34;;;20.15;76.66
23059;BME280;30585;51.502;7.218;2022-09-09T09:56:43;155225.94;;;20.00;76.32
23059;BME280;30585;51.502;7.218;2022-09-09T09:59:23;155283.16;;;20.23;74.62
23059;BME280;30585;51.502;7.218;2022-09-09T10:02:18;155306.56;;;20.32;74.32
23059;BME280;30585;51.502;7.218;2022-09-09T10:04:47;155255.84;;;20.12;75.08
23059;BME280;30585;51.502;7.218;2022-09-09T10:07:19;155353.38;;;20.51;72.05
23059;BME280;30585;51.502;7.218;2022-09-09T10:09:53;155271.44;;;20.18;73.84
23059;BME280;30585;51.502;7.218;2022-09-09T10:12:30;155277.94;;;20.21;75.66
23059;BME280;30585;51.502;7.218;2022-09-09T10:15:04;155250.63;;;20.10;71.63
23059;BME280;30585;51.502;7.218;2022-09-09T10:17:53;155125.75;;;19.60;72.83
23059;BME280;30585;51.502;7.218;2022-09-09T10:20:32;155168.66;;;19.77;73.76
23059;BME280;30585;51.502;7.218;2022-09-09T10:23:13;155189.50;;;19.86;73.47
23059;BME280;30585;51.502;7.218;2022-09-09T10:26:06;155132.25;;;19.63;74.74
23059;BME280;30585;51.502;7.218;2022-09-09T10:28:57;155043.84;;;19.28;73.13
23059;BME280;30585;51.502;7.218;2022-09-09T10:31:36;155132.25;;;19.63;73.46
23059;BME280;30585;51.502;7.218;2022-09-09T10:34:15;155159.56;;;19.74;69.88
23059;BME280;30585;51.502;7.218;2022-09-09T10:36:49;155254.53;;;20.12;67.64
23059;BME280;30585;51.502;7.218;2022-09-09T10:39:31;155203.81;;;19.91;67.32
23059;BME280;30585;51.502;7.218;2022-09-09T10:42:12;155182.97;;;19.83;67.72
23059;BME280;30585;51.502;7.218;2022-09-09T10:44:57;155244.16;;;20.07;68.71
23059;BME280;30585;51.502;7.218;2022-09-09T10:47:40;155149.16;;;19.70;64.68
23059;BME280;30585;51.502;7.218;2022-09-09T10:50:35;155124.47;;;19.60;67.29
23059;BME280;30585;51.502;7.218;2022-09-09T10:53:35;155160.84;;;19.74;69.45
23059;BME280;30585;51.502;7.218;2022-09-09T10:56:07;155155.63;;;19.72;65.19
23059;BME280;30585;51.502;7.218;2022-09-09T10:58:41;155249.34;;;20.10;68.55
23059;BME280;30585;51.502;7.218;2022-09-09T11:01:17;155272.75;;;20.19;65.65
23059;BME280;30585;51.502;7.218;2022-09-09T11:03:51;155296.19;;;20.28;65.32
23059;BME280;30585;51.502;7.218;2022-09-09T11:06:26;155257.13;;;20.13;64.44
23059;BME280;30585;51.502;7.218;2022-09-09T11:08:57;155262.34;;;20.15;68.24
23059;BME280;30585;51.502;7.218;2022-09-09T11:11:32;155163.47;;;19.75;67.60
23059;BME280;30585;51.502;7.218;2022-09-09T11:14:10;155095.84;;;19.49;67.04
23059;BME280;30585;51.502;7.218;2022-09-09T11:16:42;155203.81;;;19.91;67.58
23059;BME280;30585;51.502;7.218;2022-09-09T11:19:20;155141.38;;;19.67;66.17
23059;BME280;30585;51.502;7.218;2022-09-09T11:21:53;155110.16;;;19.54;67.89
23059;BME280;30585;51.502;7.218;2022-09-09T11:24:23;155125.75;;;19.60;66.92
23059;BME280;30585;51.502;7.218;2022-09-09T11:27:00;155186.84;;;19.85;68.40
23059;BME280;30585;51.502;7.218;2022-09-09T11:30:02;155257.13;;;20.13;68.60
23059;BME280;30585;51.502;7.218;2022-09-09T11:32:46;155359.88;;;20.53;68.38
23059;BME280;30585;51.502;7.218;2022-09-09T11:35:30;155362.47;;;20.54;63.64
23059;BME280;30585;51.502;7.218;2022-09-09T11:38:15;155378.13;;;20.61;65.53
23059;BME280;30585;51.502;7.218;2022-09-09T11:40:44;155410.69;;;20.74;63.25
23059;BME280;30585;51.502;7.218;2022-09-09T11:43:15;155413.28;;;20.75;63.03
23059;BME280;30585;51.502;7.218;2022-09-09T11:45:52;155344.28;;;20.47;63.83
23059;BME280;30585;51.502;7.218;2022-09-09T11:48:31;155384.63;;;20.63;66.23
23059;BME280;30585;51.502;7.218;2022-09-09T11:51:05;155336.47;;;20.44;66.51
23059;BME280;30585;51.502;7.218;2022-09-09T11:53:48;155363.81;;;20.55;64.00
23059;BME280;30585;51.502;7.218;2022-09-09T11:56:28;155331.28;;;20.42;65.90
23059;BME280;30585;51.502;7.218;2022-09-09T11:58:59;155392.44;;;20.66;67.00
23059;BME280;30585;51.502;7.218;2022-09-09T12:01:34;155284.47;;;20.23;66.37
23059;BME280;30585;51.502;7.218;2022-09-09T12:06:58;155231.13;;;20.02;66.22
23059;BME280;30585;51.502;7.218;2022-09-09T12:09:33;155175.16;;;19.80;67.61
23059;BME280;30585;51.502;7.218;2022-09-09T12:12:22;155162.19;;;19.75;68.33
23059;BME280;30585;51.502;7.218;2022-09-09T12:15:17;155102.34;;;19.51;68.18
23059;BME280;30585;51.502;7.218;2022-09-09T12:17:49;155146.53;;;19.69;68.79
23059;BME280;30585;51.502;7.218;2022-09-09T12:20:20;155028.28;;;19.22;71.67
23059;BME280;30585;51.502;7.218;2022-09-09T12:23:15;155015.25;;;19.17;76.21
23059;BME280;30585;51.502;7.218;2022-09-09T12:25:57;155008.75;;;19.14;75.45
23059;BME280;30585;51.502;7.218;2022-09-09T12:28:39;155039.97;;;19.26;73.90
23059;BME280;30585;51.502;7.218;2022-09-09T12:31:11;155017.84;;;19.18;75.14
23059;BME280;30585;51.502;7.218;2022-09-09T12:33:46;155071.13;;;19.39;77.50
23059;BME280;30585;51.502;7.218;2022-09-09T12:36:16;155108.84;;;19.54;74.15
23059;BME280;30585;51.502;7.218;2022-09-09T12:38:46;155076.34;;;19.41;73.43
23059;BME280;30585;51.502;7.218;2022-09-09T12:41:22;155036.03;;;19.25;74.13
23059;BME280;30585;51.502;7.218;2022-09-09T12:43:51;155075.06;;;19.40;75.86
23059;BME280;30585;51.502;7.218;2022-09-09T12:46:24;155129.69;;;19.62;77.57
23059;BME280;30585;51.502;7.218;2022-09-09T12:48:59;155094.53;;;19.48;75.38
23059;BME280;30585;51.502;7.218;2022-09-09T12:51:29;155054.28;;;19.32;74.67
23059;BME280;30585;51.502;7.218;2022-09-09T12:53:59;154978.88;;;19.02;75.77
23059;BME280;30585;51.502;7.218;2022-09-09T12:56:29;155042.56;;;19.27;78.09
23059;BME280;30585;51.502;7.218;2022-09-09T12:58:58;155212.91;;;19.95;75.75
23059;BME280;30585;51.502;7.218;2022-09-09T13:01:29;155306.56;;;20.32;74.41
23059;BME280;30585;51.502;7.218;2022-09-09T13:03:59;155192.13;;;19.87;73.65
23059;BME280;30585;51.502;7.218;2022-09-09T13:06:29;155228.50;;;20.01;77.49
23059;BME280;30585;51.502;7.218;2022-09-09T13:08:59;155389.81;;;20.65;74.85
23059;BME280;30585;51.502;7.218;2022-09-09T13:11:30;155436.72;;;20.84;72.66
23059;BME280;30585;51.502;7.218;2022-09-09T13:14:03;155598.06;;;21.48;73.12
23059;BME280;30585;51.502;7.218;2022-09-09T13:16:33;155548.59;;;21.28;71.84
23059;BME280;30585;51.502;7.218;2022-09-09T13:19:14;155622.81;;;21.58;73.50